createdAt,value
2019-05-29T00:02:06.040Z,96789.64
2019-05-29T00:07:10.145Z,96793.47
2019-05-29T00:12:18.431Z,96794.31
2019-05-29T00:17:19.362Z,96794.80
2019-05-29T00:22:22.758Z,96800.83
2019-05-29T00:27:26.501Z,96803.83
2019-05-29T00:32:30.224Z,96806.45
2019-05-29T00:37:33.626Z,96807.45
2019-05-29T00:42:37.375Z,96805.79
2019-05-29T00:47:41.079Z,96821.31
2019-05-29T00:52:44.499Z,96822.39
2019-05-29T00:57:48.216Z,96830.10
2019-05-29T01:02:51.973Z,96826.62
2019-05-29T01:07:55.658Z,96819.30
2019-05-29T01:12:59.058Z,96831.95
2019-05-29T01:18:02.468Z,96835.25
2019-05-29T01:23:06.212Z,96836.87
2019-05-29T01:28:09.608Z,96843.48
2019-05-29T01:33:16.844Z,96844.07
2019-05-29T01:38:19.263Z,96848.98
2019-05-29T01:43:23.555Z,96859.19
2019-05-29T01:48:27.815Z,96861.20
2019-05-29T01:53:31.349Z,96864.08
2019-05-29T01:58:34.747Z,96873.52
2019-05-29T02:03:38.448Z,96867.84
2019-05-29T02:08:41.841Z,96874.28
2019-05-29T02:13:45.580Z,96889.16
2019-05-29T02:18:49.599Z,96896.63
2019-05-29T02:23:53.329Z,96894.20
2019-05-29T02:28:56.750Z,96901.64
2019-05-29T02:34:00.150Z,96904.13
2019-05-29T02:39:05.385Z,96907.96
2019-05-29T02:44:08.801Z,96911.25
2019-05-29T02:49:12.694Z,96927.16
2019-05-29T02:54:16.091Z,96931.50
2019-05-29T02:59:21.021Z,96935.84
2019-05-29T03:04:26.221Z,96949.00
2019-05-29T03:09:30.689Z,96946.28
2019-05-29T03:14:34.842Z,96959.18
2019-05-29T03:19:38.354Z,96961.13
2019-05-29T03:24:41.773Z,96969.94
2019-05-29T03:29:45.174Z,96972.97
2019-05-29T03:34:48.648Z,96981.48
2019-05-29T03:39:52.432Z,96986.98
2019-05-29T03:44:55.923Z,96995.73
2019-05-29T03:49:59.672Z,97000.70
2019-05-29T03:55:03.853Z,97004.59
2019-05-29T04:00:07.908Z,97014.22
2019-05-29T04:05:11.653Z,97017.28
2019-05-29T04:10:16.598Z,97016.18
2019-05-29T04:15:20.000Z,97029.09
2019-05-29T04:20:23.467Z,97025.53
2019-05-29T04:25:33.155Z,97039.23
2019-05-29T04:30:38.635Z,97039.17
2019-05-29T04:35:42.363Z,97049.58
2019-05-29T04:40:46.084Z,97050.95
2019-05-29T04:45:49.646Z,97058.08
2019-05-29T04:50:53.044Z,97060.83
2019-05-29T04:55:56.711Z,97065.47
2019-05-29T05:01:00.115Z,97072.81
2019-05-29T05:06:03.785Z,97085.41
2019-05-29T05:11:09.126Z,97093.67
2019-05-29T05:16:12.533Z,97099.98
2019-05-29T05:21:16.261Z,97104.98
2019-05-29T05:26:19.984Z,97113.73
2019-05-29T05:31:23.724Z,97118.34
2019-05-29T05:36:27.441Z,97123.62
2019-05-29T05:41:30.895Z,97122.14
2019-05-29T05:46:35.056Z,97134.23
2019-05-29T05:51:42.695Z,97140.56
2019-05-29T05:56:43.582Z,97151.79
2019-05-29T06:01:47.278Z,97144.58
2019-05-29T06:06:50.926Z,97152.56
2019-05-29T06:11:54.345Z,97158.27
2019-05-29T06:16:57.741Z,97163.45
2019-05-29T06:22:01.431Z,97166.70
2019-05-29T06:27:04.919Z,97172.22
2019-05-29T06:32:08.429Z,97180.77
2019-05-29T06:37:11.903Z,97184.36
2019-05-29T06:42:15.424Z,97184.05
2019-05-29T06:47:18.841Z,97186.61
2019-05-29T06:52:22.247Z,97180.39
2019-05-29T06:57:26.013Z,97193.28
2019-05-29T07:02:31.750Z,97190.70
2019-05-29T07:07:35.952Z,97203.52
2019-05-29T07:12:40.354Z,97219.98
2019-05-29T07:17:44.486Z,97231.05
2019-05-29T07:22:48.154Z,97230.65
2019-05-29T07:27:51.576Z,97239.64
2019-05-29T07:32:58.324Z,97252.03
2019-05-29T07:38:00.750Z,97252.03
2019-05-29T07:43:04.463Z,97256.50
2019-05-29T07:48:07.861Z,97262.52
2019-05-29T07:53:11.605Z,97266.94
2019-05-29T07:58:15.031Z,97265.09
2019-05-29T08:03:18.455Z,97283.17
2019-05-29T08:08:22.107Z,97282.41
2019-05-29T08:13:25.503Z,97283.23
2019-05-29T08:18:28.918Z,97287.48
2019-05-29T08:23:32.599Z,97293.50
2019-05-29T08:28:36.045Z,97296.80
2019-05-29T08:33:40.790Z,97302.61
2019-05-29T08:38:45.727Z,97308.44
2019-05-29T08:43:50.794Z,97311.27
2019-05-29T08:48:54.427Z,97314.06
2019-05-29T08:53:57.825Z,97315.22
2019-05-29T08:59:01.243Z,97327.18
2019-05-29T09:04:05.068Z,97335.88
2019-05-29T09:09:08.471Z,97331.09
2019-05-29T09:14:11.865Z,97335.77
2019-05-29T09:19:16.353Z,97335.77
2019-05-29T09:24:20.932Z,97335.89
2019-05-29T09:29:25.021Z,97330.78
2019-05-29T09:34:28.413Z,97336.34
2019-05-29T09:39:31.826Z,97344.66
2019-05-29T09:44:39.369Z,97344.22
2019-05-29T09:49:40.379Z,97346.73
2019-05-29T09:54:43.770Z,97343.23
2019-05-29T09:59:47.357Z,97342.80
2019-05-29T10:04:50.756Z,97350.23
2019-05-29T10:09:55.624Z,97342.92
2019-05-29T10:15:00.960Z,97354.81
2019-05-29T10:20:08.123Z,97346.29
2019-05-29T10:25:12.357Z,97345.47
2019-05-29T10:30:16.313Z,97351.34
2019-05-29T10:35:20.201Z,97353.20
2019-05-29T10:40:23.655Z,97363.53
2019-05-29T10:45:27.134Z,97370.39
2019-05-29T10:50:30.539Z,97370.87
2019-05-29T10:55:34.264Z,97368.47
2019-05-29T11:00:39.411Z,97378.47
2019-05-29T11:05:43.226Z,97384.30
2019-05-29T11:10:47.903Z,97388.77
2019-05-29T11:15:52.763Z,97399.60
2019-05-29T11:20:57.615Z,97394.89
2019-05-29T11:26:01.414Z,97393.09
2019-05-29T11:31:06.114Z,97396.27
2019-05-29T11:36:13.391Z,97402.79
2019-05-29T11:41:25.656Z,97390.00
2019-05-29T11:46:20.656Z,97390.00
2019-05-29T11:51:24.055Z,97409.13
2019-05-29T11:56:27.462Z,97428.64
2019-05-29T12:01:48.569Z,97439.48
2019-05-29T12:06:36.305Z,97428.55
2019-05-29T12:11:40.028Z,97443.19
2019-05-29T12:16:43.684Z,97446.00
2019-05-29T12:21:47.472Z,97449.15
2019-05-29T12:26:52.305Z,97459.33
2019-05-29T12:31:57.062Z,97459.33
2019-05-29T12:37:01.860Z,97455.09
2019-05-29T12:42:06.044Z,97448.61
2019-05-29T12:47:10.081Z,97448.61
2019-05-29T12:52:13.805Z,97465.08
2019-05-29T12:57:17.212Z,97470.59
2019-05-29T13:02:20.616Z,97475.63
2019-05-29T13:07:24.024Z,97483.83
2019-05-29T13:12:27.422Z,97478.48
2019-05-29T13:17:31.178Z,97476.40
2019-05-29T13:22:35.000Z,97481.84
2019-05-29T13:27:38.387Z,97482.93
2019-05-29T13:32:42.683Z,97478.02
2019-05-29T13:37:46.319Z,97489.44
2019-05-29T13:42:49.740Z,97479.49
2019-05-29T13:47:53.145Z,97483.19
2019-05-29T13:52:57.149Z,97482.26
2019-05-29T13:58:01.646Z,97484.63
2019-05-29T14:03:06.999Z,97481.94
2019-05-29T14:08:11.339Z,97491.17
2019-05-29T14:13:14.734Z,97484.69
2019-05-29T14:18:18.489Z,97504.12
2019-05-29T14:23:22.128Z,97503.91
2019-05-29T14:28:25.803Z,97505.92
2019-05-29T14:33:29.534Z,97505.66
2019-05-29T14:38:32.926Z,97513.56
2019-05-29T14:43:36.342Z,97516.24
2019-05-29T14:48:39.905Z,97510.94
2019-05-29T14:53:43.323Z,97508.13
2019-05-29T14:58:46.737Z,97511.14
2019-05-29T15:03:50.434Z,97522.36
2019-05-29T15:08:54.146Z,97519.62
2019-05-29T15:13:57.886Z,97527.14
2019-05-29T15:19:01.609Z,97523.78
2019-05-29T15:24:05.759Z,97525.58
2019-05-29T15:29:12.704Z,97531.81
2019-05-29T15:34:14.736Z,97536.17
2019-05-29T15:39:18.146Z,97543.90
2019-05-29T15:44:21.838Z,97539.66
2019-05-29T15:49:25.570Z,97550.59
2019-05-29T15:54:29.001Z,97553.44
2019-05-29T15:59:32.407Z,97562.16
2019-05-29T16:04:35.804Z,97563.82
2019-05-29T16:09:39.495Z,97578.52
2019-05-29T16:14:42.892Z,97572.70
2019-05-29T16:19:46.547Z,97584.13
2019-05-29T16:24:50.293Z,97589.44
2019-05-29T16:29:54.015Z,97596.91
2019-05-29T16:34:57.412Z,97601.52
2019-05-29T16:40:01.136Z,97607.42
2019-05-29T16:45:08.235Z,97617.75
2019-05-29T16:50:13.060Z,97617.97
2019-05-29T16:55:17.303Z,97624.45
2019-05-29T17:00:21.812Z,97621.63
2019-05-29T17:05:25.795Z,97626.05
2019-05-29T17:10:36.620Z,97629.63
2019-05-29T17:15:40.289Z,97626.77
2019-05-29T17:20:47.416Z,97628.89
2019-05-29T17:25:50.810Z,97638.28
2019-05-29T17:30:54.521Z,97643.89
2019-05-29T17:35:57.923Z,97650.53
2019-05-29T17:41:01.335Z,97658.76
2019-05-29T17:46:04.733Z,97660.28
2019-05-29T17:51:08.126Z,97671.63
2019-05-29T17:56:25.378Z,97671.83
2019-05-29T18:01:18.137Z,97684.89
2019-05-29T18:06:22.436Z,97682.88
2019-05-29T18:11:27.567Z,97681.23
2019-05-29T18:16:31.415Z,97692.61
2019-05-29T18:21:34.815Z,97695.86
2019-05-29T18:26:46.808Z,97693.48
2019-05-29T18:31:43.389Z,97697.88
2019-05-29T18:36:46.787Z,97705.27
2019-05-29T18:41:50.188Z,97713.33
2019-05-29T18:46:53.614Z,97720.43
2019-05-29T18:52:00.294Z,97729.24
2019-05-29T18:57:14.373Z,97739.13
2019-05-29T19:02:08.074Z,97741.92
2019-05-29T19:07:11.470Z,97741.92
2019-05-29T19:12:15.198Z,97749.06
2019-05-29T19:17:18.615Z,97757.05
2019-05-29T19:22:22.316Z,97764.78
2019-05-29T19:27:36.970Z,97768.89
2019-05-29T19:32:32.277Z,97780.69
2019-05-29T19:37:36.575Z,97791.15
2019-05-29T19:42:40.307Z,97804.36
2019-05-29T19:47:43.950Z,97814.70
2019-05-29T19:52:47.341Z,97819.77
2019-05-29T19:57:56.213Z,97827.70
2019-05-29T20:02:56.419Z,97837.00
2019-05-29T20:08:00.131Z,97840.50
2019-05-29T20:13:03.543Z,97840.40
2019-05-29T20:18:06.973Z,97855.97
2019-05-29T20:23:10.367Z,97856.44
2019-05-29T20:28:14.090Z,97856.32
2019-05-29T20:33:17.509Z,97864.30
2019-05-29T20:38:20.924Z,97868.20
2019-05-29T20:43:24.642Z,97868.36
2019-05-29T20:48:28.392Z,97879.95
2019-05-29T20:53:33.303Z,97880.31
2019-05-29T20:58:37.754Z,97880.44
2019-05-29T21:03:42.486Z,97884.21
2019-05-29T21:08:46.019Z,97890.83
2019-05-29T21:13:49.415Z,97896.89
2019-05-29T21:18:52.812Z,97899.41
2019-05-29T21:23:56.207Z,97901.59
2019-05-29T21:28:59.883Z,97899.80
2019-05-29T21:34:03.314Z,97898.38
2019-05-29T21:39:09.153Z,97903.50
2019-05-29T21:44:12.890Z,97899.27
2019-05-29T21:49:16.287Z,97912.56
2019-05-29T21:54:20.014Z,97919.47
2019-05-29T21:59:23.435Z,97916.27
2019-05-29T22:04:26.835Z,97920.97
2019-05-29T22:09:30.247Z,97923.38
2019-05-29T22:14:33.978Z,97926.09
2019-05-29T22:19:37.699Z,97925.09
2019-05-29T22:24:41.347Z,97924.95
2019-05-29T22:29:44.763Z,97931.92
2019-05-29T22:34:48.183Z,97931.92
2019-05-29T22:39:51.577Z,97922.78
2019-05-29T22:44:55.635Z,97934.85
2019-05-29T22:49:59.886Z,97934.11
2019-05-29T22:55:03.873Z,97925.34
2019-05-29T23:00:08.096Z,97931.68
2019-05-29T23:05:11.653Z,97939.67
2019-05-29T23:10:15.625Z,97933.30
2019-05-29T23:15:19.553Z,97936.31
2019-05-29T23:20:22.951Z,97933.48
2019-05-29T23:25:26.586Z,97935.35
2019-05-29T23:30:30.794Z,97936.22
2019-05-29T23:35:34.644Z,97943.37
2019-05-29T23:40:38.049Z,97941.26
2019-05-29T23:45:41.435Z,97948.38
2019-05-29T23:50:45.091Z,97944.36
2019-05-29T23:55:48.825Z,97945.00
